sensor_id;sensor_type;location;lat;lon;timestamp;P1;durP1;ratioP1;P2;durP2;ratioP2
27539;SDS011;15906;52.046;4.724;2023-10-08T00:00:46;14.25;;;5.10;;
27539;SDS011;15906;52.046;4.724;2023-10-08T00:03:18;12.98;;;4.97;;
27539;SDS011;15906;52.046;4.724;2023-10-08T00:05:52;20.45;;;6.60;;
27539;SDS011;15906;52.046;4.724;2023-10-08T00:08:18;14.32;;;5.35;;
27539;SDS011;15906;52.046;4.724;2023-10-08T00:10:44;22.17;;;5.13;;
27539;SDS011;15906;52.046;4.724;2023-10-08T00:13:10;19.65;;;5.43;;
27539;SDS011;15906;52.046;4.724;2023-10-08T00:15:40;14.73;;;6.00;;
27539;SDS011;15906;52.046;4.724;2023-10-08T00:18:17;15.50;;;5.43;;
27539;SDS011;15906;52.046;4.724;2023-10-08T00:20:44;14.02;;;5.03;;
27539;SDS011;15906;52.046;4.724;2023-10-08T00:23:19;21.77;;;6.35;;
27539;SDS011;15906;52.046;4.724;2023-10-08T00:25:46;16.60;;;5.53;;
27539;SDS011;15906;52.046;4.724;2023-10-08T00:28:12;17.30;;;5.70;;
27539;SDS011;15906;52.046;4.724;2023-10-08T00:30:41;16.20;;;6.53;;
27539;SDS011;15906;52.046;4.724;2023-10-08T00:33:10;16.85;;;5.45;;
27539;SDS011;15906;52.046;4.724;2023-10-08T00:35:39;17.98;;;5.90;;
27539;SDS011;15906;52.046;4.724;2023-10-08T00:38:06;15.25;;;5.68;;
27539;SDS011;15906;52.046;4.724;2023-10-08T00:40:39;16.35;;;6.10;;
27539;SDS011;15906;52.046;4.724;2023-10-08T00:43:07;20.23;;;5.30;;
27539;SDS011;15906;52.046;4.724;2023-10-08T00:45:35;19.70;;;6.82;;
27539;SDS011;15906;52.046;4.724;2023-10-08T00:48:07;16.35;;;6.15;;
27539;SDS011;15906;52.046;4.724;2023-10-08T00:50:34;16.70;;;5.65;;
27539;SDS011;15906;52.046;4.724;2023-10-08T00:53:07;15.30;;;5.43;;
27539;SDS011;15906;52.046;4.724;2023-10-08T00:55:42;17.63;;;6.00;;
27539;SDS011;15906;52.046;4.724;2023-10-08T00:58:15;19.98;;;5.65;;
27539;SDS011;15906;52.046;4.724;2023-10-08T01:00:48;14.15;;;5.13;;
27539;SDS011;15906;52.046;4.724;2023-10-08T01:03:18;16.40;;;6.32;;
27539;SDS011;15906;52.046;4.724;2023-10-08T01:05:44;18.27;;;6.10;;
27539;SDS011;15906;52.046;4.724;2023-10-08T01:08:14;15.65;;;5.47;;
27539;SDS011;15906;52.046;4.724;2023-10-08T01:10:44;20.13;;;6.28;;
27539;SDS011;15906;52.046;4.724;2023-10-08T01:13:12;15.55;;;5.97;;
27539;SDS011;15906;52.046;4.724;2023-10-08T01:15:45;16.42;;;6.50;;
27539;SDS011;15906;52.046;4.724;2023-10-08T01:18:16;19.90;;;5.85;;
27539;SDS011;15906;52.046;4.724;2023-10-08T01:20:54;17.63;;;6.30;;
27539;SDS011;15906;52.046;4.724;2023-10-08T01:23:20;14.90;;;5.55;;
27539;SDS011;15906;52.046;4.724;2023-10-08T01:25:47;18.63;;;6.72;;
27539;SDS011;15906;52.046;4.724;2023-10-08T01:28:16;13.48;;;5.75;;
27539;SDS011;15906;52.046;4.724;2023-10-08T01:30:55;16.95;;;6.40;;
27539;SDS011;15906;52.046;4.724;2023-10-08T01:33:25;18.10;;;5.95;;
27539;SDS011;15906;52.046;4.724;2023-10-08T01:35:53;14.57;;;5.65;;
27539;SDS011;15906;52.046;4.724;2023-10-08T01:38:19;15.15;;;5.50;;
27539;SDS011;15906;52.046;4.724;2023-10-08T01:40:51;15.57;;;6.20;;
27539;SDS011;15906;52.046;4.724;2023-10-08T01:43:17;15.52;;;6.53;;
27539;SDS011;15906;52.046;4.724;2023-10-08T01:45:43;15.57;;;5.97;;
27539;SDS011;15906;52.046;4.724;2023-10-08T01:48:13;13.52;;;5.90;;
27539;SDS011;15906;52.046;4.724;2023-10-08T01:50:56;14.02;;;5.45;;
27539;SDS011;15906;52.046;4.724;2023-10-08T01:53:26;16.40;;;6.45;;
27539;SDS011;15906;52.046;4.724;2023-10-08T01:55:52;17.98;;;6.80;;
27539;SDS011;15906;52.046;4.724;2023-10-08T01:58:19;19.58;;;6.07;;
27539;SDS011;15906;52.046;4.724;2023-10-08T02:00:45;19.33;;;5.35;;
27539;SDS011;15906;52.046;4.724;2023-10-08T02:03:12;15.70;;;5.78;;
27539;SDS011;15906;52.046;4.724;2023-10-08T02:05:40;15.98;;;6.78;;
27539;SDS011;15906;52.046;4.724;2023-10-08T02:08:07;19.35;;;5.93;;
27539;SDS011;15906;52.046;4.724;2023-10-08T02:10:33;21.85;;;7.18;;
27539;SDS011;15906;52.046;4.724;2023-10-08T02:13:00;15.60;;;5.93;;
27539;SDS011;15906;52.046;4.724;2023-10-08T02:15:26;17.75;;;6.53;;
27539;SDS011;15906;52.046;4.724;2023-10-08T02:17:52;18.30;;;6.18;;
27539;SDS011;15906;52.046;4.724;2023-10-08T02:20:19;12.27;;;5.85;;
27539;SDS011;15906;52.046;4.724;2023-10-08T02:22:46;18.23;;;6.32;;
27539;SDS011;15906;52.046;4.724;2023-10-08T02:25:14;16.35;;;6.63;;
27539;SDS011;15906;52.046;4.724;2023-10-08T02:27:40;20.88;;;6.70;;
27539;SDS011;15906;52.046;4.724;2023-10-08T02:30:06;15.73;;;5.85;;
27539;SDS011;15906;52.046;4.724;2023-10-08T02:32:34;19.75;;;5.93;;
27539;SDS011;15906;52.046;4.724;2023-10-08T02:35:01;19.70;;;5.80;;
27539;SDS011;15906;52.046;4.724;2023-10-08T02:37:27;18.65;;;6.97;;
27539;SDS011;15906;52.046;4.724;2023-10-08T02:39:53;17.15;;;5.78;;
27539;SDS011;15906;52.046;4.724;2023-10-08T02:42:19;17.33;;;6.32;;
27539;SDS011;15906;52.046;4.724;2023-10-08T02:44:47;16.67;;;6.03;;
27539;SDS011;15906;52.046;4.724;2023-10-08T02:47:12;18.50;;;5.82;;
27539;SDS011;15906;52.046;4.724;2023-10-08T02:49:45;18.50;;;7.00;;
27539;SDS011;15906;52.046;4.724;2023-10-08T02:52:13;17.08;;;6.55;;
27539;SDS011;15906;52.046;4.724;2023-10-08T02:54:40;13.93;;;5.45;;
27539;SDS011;15906;52.046;4.724;2023-10-08T02:57:06;19.13;;;6.50;;
27539;SDS011;15906;52.046;4.724;2023-10-08T02:59:39;15.13;;;5.88;;
27539;SDS011;15906;52.046;4.724;2023-10-08T03:02:09;13.30;;;6.03;;
27539;SDS011;15906;52.046;4.724;2023-10-08T03:04:40;15.80;;;6.18;;
27539;SDS011;15906;52.046;4.724;2023-10-08T03:07:07;21.38;;;6.90;;
27539;SDS011;15906;52.046;4.724;2023-10-08T03:09:37;18.10;;;6.03;;
27539;SDS011;15906;52.046;4.724;2023-10-08T03:12:07;21.60;;;7.97;;
27539;SDS011;15906;52.046;4.724;2023-10-08T03:14:35;14.75;;;6.60;;
27539;SDS011;15906;52.046;4.724;2023-10-08T03:17:13;17.95;;;6.80;;
27539;SDS011;15906;52.046;4.724;2023-10-08T03:19:44;11.75;;;5.68;;
27539;SDS011;15906;52.046;4.724;2023-10-08T03:22:10;10.25;;;5.68;;
27539;SDS011;15906;52.046;4.724;2023-10-08T03:24:37;17.50;;;6.32;;
27539;SDS011;15906;52.046;4.724;2023-10-08T03:27:03;15.98;;;6.13;;
27539;SDS011;15906;52.046;4.724;2023-10-08T03:29:45;15.15;;;6.25;;
27539;SDS011;15906;52.046;4.724;2023-10-08T03:32:12;20.08;;;6.20;;
27539;SDS011;15906;52.046;4.724;2023-10-08T03:34:45;15.70;;;6.40;;
27539;SDS011;15906;52.046;4.724;2023-10-08T03:37:17;15.80;;;6.55;;
27539;SDS011;15906;52.046;4.724;2023-10-08T03:39:54;13.15;;;5.47;;
27539;SDS011;15906;52.046;4.724;2023-10-08T03:42:40;15.73;;;6.32;;
27539;SDS011;15906;52.046;4.724;2023-10-08T03:45:06;23.92;;;7.28;;
27539;SDS011;15906;52.046;4.724;2023-10-08T03:47:37;17.23;;;6.28;;
27539;SDS011;15906;52.046;4.724;2023-10-08T03:50:06;19.48;;;7.05;;
27539;SDS011;15906;52.046;4.724;2023-10-08T03:52:35;18.17;;;6.97;;
27539;SDS011;15906;52.046;4.724;2023-10-08T03:55:04;17.48;;;6.68;;
27539;SDS011;15906;52.046;4.724;2023-10-08T03:57:45;22.15;;;7.35;;
27539;SDS011;15906;52.046;4.724;2023-10-08T04:00:14;18.70;;;6.97;;
27539;SDS011;15906;52.046;4.724;2023-10-08T04:02:44;16.35;;;6.65;;
27539;SDS011;15906;52.046;4.724;2023-10-08T04:05:23;22.02;;;7.53;;
27539;SDS011;15906;52.046;4.724;2023-10-08T04:07:52;22.15;;;7.07;;
27539;SDS011;15906;52.046;4.724;2023-10-08T04:10:25;16.17;;;6.93;;
27539;SDS011;15906;52.046;4.724;2023-10-08T04:13:24;14.63;;;6.13;;
27539;SDS011;15906;52.046;4.724;2023-10-08T04:15:49;19.13;;;8.02;;
27539;SDS011;15906;52.046;4.724;2023-10-08T04:18:15;15.38;;;7.45;;
27539;SDS011;15906;52.046;4.724;2023-10-08T04:20:40;20.48;;;7.63;;
27539;SDS011;15906;52.046;4.724;2023-10-08T04:23:25;19.85;;;7.70;;
27539;SDS011;15906;52.046;4.724;2023-10-08T04:25:51;20.48;;;7.45;;
27539;SDS011;15906;52.046;4.724;2023-10-08T04:28:19;17.55;;;7.63;;
27539;SDS011;15906;52.046;4.724;2023-10-08T04:30:46;14.30;;;7.70;;
27539;SDS011;15906;52.046;4.724;2023-10-08T04:33:18;24.73;;;8.30;;
27539;SDS011;15906;52.046;4.724;2023-10-08T04:35:44;18.30;;;7.30;;
27539;SDS011;15906;52.046;4.724;2023-10-08T04:38:15;17.02;;;7.88;;
27539;SDS011;15906;52.046;4.724;2023-10-08T04:40:46;20.27;;;7.75;;
27539;SDS011;15906;52.046;4.724;2023-10-08T04:43:19;24.73;;;9.15;;
27539;SDS011;15906;52.046;4.724;2023-10-08T04:45:53;25.52;;;9.85;;
27539;SDS011;15906;52.046;4.724;2023-10-08T04:48:23;25.65;;;10.32;;
27539;SDS011;15906;52.046;4.724;2023-10-08T04:50:54;18.92;;;8.70;;
27539;SDS011;15906;52.046;4.724;2023-10-08T04:53:32;26.67;;;10.13;;
27539;SDS011;15906;52.046;4.724;2023-10-08T04:56:03;19.13;;;7.40;;
27539;SDS011;15906;52.046;4.724;2023-10-08T04:58:38;20.90;;;6.95;;
27539;SDS011;15906;52.046;4.724;2023-10-08T05:01:05;19.42;;;6.95;;
27539;SDS011;15906;52.046;4.724;2023-10-08T05:03:52;21.30;;;6.95;;
27539;SDS011;15906;52.046;4.724;2023-10-08T05:06:22;22.45;;;6.72;;
27539;SDS011;15906;52.046;4.724;2023-10-08T05:09:04;17.50;;;6.88;;
27539;SDS011;15906;52.046;4.724;2023-10-08T05:11:42;20.08;;;6.82;;
27539;SDS011;15906;52.046;4.724;2023-10-08T05:14:22;17.75;;;6.45;;
27539;SDS011;15906;52.046;4.724;2023-10-08T05:16:58;13.75;;;5.93;;
27539;SDS011;15906;52.046;4.724;2023-10-08T05:19:45;15.60;;;5.03;;
27539;SDS011;15906;52.046;4.724;2023-10-08T05:22:42;16.55;;;4.90;;
27539;SDS011;15906;52.046;4.724;2023-10-08T05:25:20;12.02;;;4.75;;
27539;SDS011;15906;52.046;4.724;2023-10-08T05:27:46;13.23;;;4.35;;
27539;SDS011;15906;52.046;4.724;2023-10-08T05:30:26;14.45;;;4.45;;
27539;SDS011;15906;52.046;4.724;2023-10-08T05:32:53;20.00;;;4.35;;
27539;SDS011;15906;52.046;4.724;2023-10-08T05:35:37;12.80;;;4.25;;
27539;SDS011;15906;52.046;4.724;2023-10-08T05:40:55;17.48;;;4.75;;
27539;SDS011;15906;52.046;4.724;2023-10-08T05:43:28;22.35;;;5.03;;
27539;SDS011;15906;52.046;4.724;2023-10-08T05:46:02;14.13;;;4.25;;
27539;SDS011;15906;52.046;4.724;2023-10-08T05:49:04;15.77;;;4.40;;
27539;SDS011;15906;52.046;4.724;2023-10-08T05:51:33;17.27;;;5.00;;
27539;SDS011;15906;52.046;4.724;2023-10-08T05:54:22;17.90;;;4.10;;
27539;SDS011;15906;52.046;4.724;2023-10-08T05:56:55;11.65;;;4.20;;
27539;SDS011;15906;52.046;4.724;2023-10-08T05:59:41;15.07;;;4.82;;
27539;SDS011;15906;52.046;4.724;2023-10-08T06:04:53;11.70;;;4.97;;
27539;SDS011;15906;52.046;4.724;2023-10-08T06:07:37;16.85;;;5.93;;
27539;SDS011;15906;52.046;4.724;2023-10-08T06:10:19;14.40;;;5.80;;
27539;SDS011;15906;52.046;4.724;2023-10-08T06:13:08;21.67;;;5.63;;
27539;SDS011;15906;52.046;4.724;2023-10-08T06:20:44;21.75;;;6.60;;
27539;SDS011;15906;52.046;4.724;2023-10-08T06:23:14;21.15;;;7.63;;
27539;SDS011;15906;52.046;4.724;2023-10-08T06:25:43;26.73;;;7.28;;
27539;SDS011;15906;52.046;4.724;2023-10-08T06:28:17;25.15;;;8.10;;
27539;SDS011;15906;52.046;4.724;2023-10-08T06:30:49;41.60;;;8.73;;
27539;SDS011;15906;52.046;4.724;2023-10-08T06:33:18;30.67;;;7.30;;
27539;SDS011;15906;52.046;4.724;2023-10-08T06:35:45;32.42;;;8.82;;
27539;SDS011;15906;52.046;4.724;2023-10-08T06:38:22;21.52;;;5.80;;
27539;SDS011;15906;52.046;4.724;2023-10-08T06:40:49;22.70;;;5.82;;
27539;SDS011;15906;52.046;4.724;2023-10-08T06:43:17;23.60;;;5.60;;
27539;SDS011;15906;52.046;4.724;2023-10-08T06:45:47;18.42;;;5.18;;
27539;SDS011;15906;52.046;4.724;2023-10-08T06:48:17;27.10;;;5.47;;
27539;SDS011;15906;52.046;4.724;2023-10-08T06:50:44;17.05;;;5.35;;
27539;SDS011;15906;52.046;4.724;2023-10-08T06:53:10;24.55;;;5.70;;
27539;SDS011;15906;52.046;4.724;2023-10-08T06:55:39;21.45;;;5.75;;
27539;SDS011;15906;52.046;4.724;2023-10-08T06:58:05;13.80;;;5.22;;
27539;SDS011;15906;52.046;4.724;2023-10-08T07:00:33;15.38;;;6.07;;
27539;SDS011;15906;52.046;4.724;2023-10-08T07:03:08;19.20;;;5.90;;
27539;SDS011;15906;52.046;4.724;2023-10-08T07:05:40;19.90;;;5.97;;
27539;SDS011;15906;52.046;4.724;2023-10-08T07:08:06;13.02;;;5.28;;
27539;SDS011;15906;52.046;4.724;2023-10-08T07:10:33;15.88;;;5.03;;
27539;SDS011;15906;52.046;4.724;2023-10-08T07:13:01;21.77;;;5.38;;
27539;SDS011;15906;52.046;4.724;2023-10-08T07:15:33;13.60;;;4.40;;
27539;SDS011;15906;52.046;4.724;2023-10-08T07:18:03;14.70;;;4.75;;
27539;SDS011;15906;52.046;4.724;2023-10-08T07:20:35;24.88;;;4.90;;
27539;SDS011;15906;52.046;4.724;2023-10-08T07:23:04;14.15;;;5.03;;
27539;SDS011;15906;52.046;4.724;2023-10-08T07:25:34;11.00;;;5.05;;
27539;SDS011;15906;52.046;4.724;2023-10-08T07:28:04;13.00;;;4.32;;
27539;SDS011;15906;52.046;4.724;2023-10-08T07:30:36;17.65;;;5.55;;
27539;SDS011;15906;52.046;4.724;2023-10-08T07:33:04;13.13;;;4.10;;
27539;SDS011;15906;52.046;4.724;2023-10-08T07:35:30;9.55;;;4.53;;
27539;SDS011;15906;52.046;4.724;2023-10-08T07:38:03;13.40;;;4.47;;
27539;SDS011;15906;52.046;4.724;2023-10-08T07:40:34;12.05;;;4.63;;
27539;SDS011;15906;52.046;4.724;2023-10-08T07:43:02;13.20;;;4.22;;
27539;SDS011;15906;52.046;4.724;2023-10-08T07:45:33;12.40;;;4.32;;
27539;SDS011;15906;52.046;4.724;2023-10-08T07:48:00;16.60;;;5.18;;
27539;SDS011;15906;52.046;4.724;2023-10-08T07:50:26;13.40;;;4.72;;
27539;SDS011;15906;52.046;4.724;2023-10-08T07:52:54;16.83;;;4.82;;
27539;SDS011;15906;52.046;4.724;2023-10-08T07:55:21;13.40;;;4.47;;
27539;SDS011;15906;52.046;4.724;2023-10-08T07:57:47;21.35;;;4.68;;
27539;SDS011;15906;52.046;4.724;2023-10-08T08:00:13;14.85;;;4.93;;
27539;SDS011;15906;52.046;4.724;2023-10-08T08:02:43;21.60;;;6.22;;
27539;SDS011;15906;52.046;4.724;2023-10-08T08:05:09;17.17;;;5.10;;
27539;SDS011;15906;52.046;4.724;2023-10-08T08:07:35;14.48;;;5.78;;
27539;SDS011;15906;52.046;4.724;2023-10-08T08:10:02;14.55;;;4.93;;
27539;SDS011;15906;52.046;4.724;2023-10-08T08:12:35;13.98;;;4.28;;
27539;SDS011;15906;52.046;4.724;2023-10-08T08:15:02;16.23;;;4.82;;
27539;SDS011;15906;52.046;4.724;2023-10-08T08:17:40;15.23;;;4.60;;
27539;SDS011;15906;52.046;4.724;2023-10-08T08:20:07;17.50;;;5.70;;
27539;SDS011;15906;52.046;4.724;2023-10-08T08:22:42;12.68;;;4.60;;
27539;SDS011;15906;52.046;4.724;2023-10-08T08:25:14;16.20;;;4.28;;
27539;SDS011;15906;52.046;4.724;2023-10-08T08:27:41;11.25;;;3.70;;
27539;SDS011;15906;52.046;4.724;2023-10-08T08:30:10;15.30;;;4.43;;
27539;SDS011;15906;52.046;4.724;2023-10-08T08:32:40;13.20;;;4.07;;
27539;SDS011;15906;52.046;4.724;2023-10-08T08:35:10;8.52;;;3.65;;
27539;SDS011;15906;52.046;4.724;2023-10-08T08:37:36;10.07;;;3.75;;
27539;SDS011;15906;52.046;4.724;2023-10-08T08:40:06;13.32;;;3.97;;
27539;SDS011;15906;52.046;4.724;2023-10-08T08:42:42;9.77;;;3.03;;
27539;SDS011;15906;52.046;4.724;2023-10-08T08:45:11;9.75;;;3.30;;
27539;SDS011;15906;52.046;4.724;2023-10-08T08:47:38;8.63;;;2.83;;
27539;SDS011;15906;52.046;4.724;2023-10-08T08:50:08;9.63;;;2.65;;
27539;SDS011;15906;52.046;4.724;2023-10-08T08:52:37;9.65;;;2.75;;
27539;SDS011;15906;52.046;4.724;2023-10-08T08:55:06;8.32;;;2.63;;
27539;SDS011;15906;52.046;4.724;2023-10-08T08:57:41;10.75;;;3.03;;
27539;SDS011;15906;52.046;4.724;2023-10-08T09:00:08;16.65;;;3.05;;
27539;SDS011;15906;52.046;4.724;2023-10-08T09:02:39;10.48;;;2.75;;
27539;SDS011;15906;52.046;4.724;2023-10-08T09:05:05;7.57;;;2.70;;
27539;SDS011;15906;52.046;4.724;2023-10-08T09:08:03;9.82;;;2.85;;
27539;SDS011;15906;52.046;4.724;2023-10-08T09:10:35;12.23;;;2.90;;
27539;SDS011;15906;52.046;4.724;2023-10-08T09:13:03;9.35;;;2.70;;
27539;SDS011;15906;52.046;4.724;2023-10-08T09:15:30;14.32;;;3.38;;
27539;SDS011;15906;52.046;4.724;2023-10-08T09:17:57;14.30;;;3.65;;
27539;SDS011;15906;52.046;4.724;2023-10-08T09:20:26;10.95;;;3.05;;
27539;SDS011;15906;52.046;4.724;2023-10-08T09:23:08;9.52;;;2.88;;
27539;SDS011;15906;52.046;4.724;2023-10-08T09:25:41;12.50;;;3.80;;
27539;SDS011;15906;52.046;4.724;2023-10-08T09:28:08;7.72;;;2.80;;
27539;SDS011;15906;52.046;4.724;2023-10-08T09:30:38;12.30;;;3.25;;
27539;SDS011;15906;52.046;4.724;2023-10-08T09:33:05;15.35;;;4.03;;
27539;SDS011;15906;52.046;4.724;2023-10-08T09:35:32;11.90;;;3.38;;
27539;SDS011;15906;52.046;4.724;2023-10-08T09:37:58;9.30;;;3.83;;
27539;SDS011;15906;52.046;4.724;2023-10-08T09:40:27;10.50;;;3.15;;
27539;SDS011;15906;52.046;4.724;2023-10-08T09:42:53;15.07;;;4.18;;
27539;SDS011;15906;52.046;4.724;2023-10-08T09:45:19;11.82;;;4.07;;
27539;SDS011;15906;52.046;4.724;2023-10-08T09:47:49;11.77;;;3.75;;
27539;SDS011;15906;52.046;4.724;2023-10-08T09:50:21;13.82;;;4.07;;
27539;SDS011;15906;52.046;4.724;2023-10-08T09:55:32;11.73;;;4.15;;
27539;SDS011;15906;52.046;4.724;2023-10-08T09:57:58;10.65;;;3.65;;
27539;SDS011;15906;52.046;4.724;2023-10-08T10:00:24;10.43;;;3.53;;
27539;SDS011;15906;52.046;4.724;2023-10-08T10:02:56;8.98;;;3.80;;
27539;SDS011;15906;52.046;4.724;2023-10-08T10:05:28;12.77;;;3.95;;
27539;SDS011;15906;52.046;4.724;2023-10-08T10:07:57;8.70;;;3.65;;
27539;SDS011;15906;52.046;4.724;2023-10-08T10:12:51;7.90;;;3.85;;
27539;SDS011;15906;52.046;4.724;2023-10-08T10:15:19;10.98;;;4.80;;
27539;SDS011;15906;52.046;4.724;2023-10-08T10:17:47;10.52;;;4.35;;
27539;SDS011;15906;52.046;4.724;2023-10-08T10:20:14;12.00;;;4.57;;
27539;SDS011;15906;52.046;4.724;2023-10-08T10:22:40;9.23;;;4.35;;
27539;SDS011;15906;52.046;4.724;2023-10-08T10:25:08;13.77;;;4.72;;
27539;SDS011;15906;52.046;4.724;2023-10-08T10:27:42;14.48;;;4.75;;
27539;SDS011;15906;52.046;4.724;2023-10-08T10:30:31;13.02;;;4.93;;
27539;SDS011;15906;52.046;4.724;2023-10-08T10:32:59;11.30;;;4.63;;
27539;SDS011;15906;52.046;4.724;2023-10-08T10:35:25;11.10;;;4.32;;
27539;SDS011;15906;52.046;4.724;2023-10-08T10:37:52;11.40;;;4.63;;
27539;SDS011;15906;52.046;4.724;2023-10-08T10:40:20;10.73;;;4.35;;
27539;SDS011;15906;52.046;4.724;2023-10-08T10:43:05;15.00;;;4.13;;
27539;SDS011;15906;52.046;4.724;2023-10-08T10:45:34;13.15;;;4.55;;
27539;SDS011;15906;52.046;4.724;2023-10-08T10:48:08;13.20;;;4.75;;
27539;SDS011;15906;52.046;4.724;2023-10-08T10:50:47;12.07;;;4.40;;
27539;SDS011;15906;52.046;4.724;2023-10-08T10:53:37;11.90;;;4.20;;
27539;SDS011;15906;52.046;4.724;2023-10-08T10:56:15;10.13;;;4.43;;
27539;SDS011;15906;52.046;4.724;2023-10-08T10:58:54;9.27;;;4.03;;
27539;SDS011;15906;52.046;4.724;2023-10-08T11:01:27;13.70;;;4.30;;
27539;SDS011;15906;52.046;4.724;2023-10-08T11:04:09;11.50;;;4.15;;
27539;SDS011;15906;52.046;4.724;2023-10-08T11:06:40;8.63;;;3.80;;
27539;SDS011;15906;52.046;4.724;2023-10-08T11:09:09;7.50;;;3.75;;
27539;SDS011;15906;52.046;4.724;2023-10-08T11:11:40;9.27;;;3.42;;
27539;SDS011;15906;52.046;4.724;2023-10-08T11:14:10;11.82;;;4.88;;
27539;SDS011;15906;52.046;4.724;2023-10-08T11:16:42;12.85;;;3.70;;
27539;SDS011;15906;52.046;4.724;2023-10-08T11:19:08;12.23;;;4.40;;
27539;SDS011;15906;52.046;4.724;2023-10-08T11:21:47;11.95;;;3.90;;
27539;SDS011;15906;52.046;4.724;2023-10-08T11:24:29;8.75;;;4.22;;
27539;SDS011;15906;52.046;4.724;2023-10-08T11:26:58;9.48;;;4.18;;
27539;SDS011;15906;52.046;4.724;2023-10-08T11:29:48;11.32;;;5.13;;
27539;SDS011;15906;52.046;4.724;2023-10-08T11:32:25;12.27;;;4.88;;
27539;SDS011;15906;52.046;4.724;2023-10-08T11:35:00;11.00;;;4.38;;
27539;SDS011;15906;52.046;4.724;2023-10-08T11:37:44;11.82;;;4.70;;
27539;SDS011;15906;52.046;4.724;2023-10-08T11:40:21;9.80;;;4.35;;
27539;SDS011;15906;52.046;4.724;2023-10-08T11:43:08;18.23;;;5.05;;
27539;SDS011;15906;52.046;4.724;2023-10-08T11:45:40;12.45;;;4.60;;
27539;SDS011;15906;52.046;4.724;2023-10-08T11:48:15;10.00;;;4.35;;
27539;SDS011;15906;52.046;4.724;2023-10-08T11:50:53;11.20;;;4.18;;
27539;SDS011;15906;52.046;4.724;2023-10-08T11:53:22;11.60;;;5.57;;
27539;SDS011;15906;52.046;4.724;2023-10-08T11:55:49;13.85;;;5.10;;
27539;SDS011;15906;52.046;4.724;2023-10-08T11:58:19;13.95;;;5.78;;
27539;SDS011;15906;52.046;4.724;2023-10-08T12:00:45;14.18;;;5.20;;
27539;SDS011;15906;52.046;4.724;2023-10-08T12:03:14;10.32;;;5.35;;
27539;SDS011;15906;52.046;4.724;2023-10-08T12:05:46;11.48;;;4.93;;
27539;SDS011;15906;52.046;4.724;2023-10-08T12:08:16;18.25;;;5.50;;
27539;SDS011;15906;52.046;4.724;2023-10-08T12:10:43;12.18;;;5.15;;
27539;SDS011;15906;52.046;4.724;2023-10-08T12:13:11;9.07;;;5.25;;
27539;SDS011;15906;52.046;4.724;2023-10-08T12:15:37;10.07;;;5.47;;
27539;SDS011;15906;52.046;4.724;2023-10-08T12:18:06;10.55;;;5.88;;
27539;SDS011;15906;52.046;4.724;2023-10-08T12:20:51;12.73;;;6.07;;
27539;SDS011;15906;52.046;4.724;2023-10-08T12:23:18;11.80;;;6.13;;
27539;SDS011;15906;52.046;4.724;2023-10-08T12:25:50;12.35;;;5.78;;
27539;SDS011;15906;52.046;4.724;2023-10-08T12:28:20;12.13;;;5.78;;
27539;SDS011;15906;52.046;4.724;2023-10-08T12:30:50;10.77;;;5.68;;
27539;SDS011;15906;52.046;4.724;2023-10-08T12:33:19;10.27;;;5.35;;
27539;SDS011;15906;52.046;4.724;2023-10-08T12:35:48;7.72;;;5.40;;
27539;SDS011;15906;52.046;4.724;2023-10-08T12:38:13;12.55;;;5.88;;
27539;SDS011;15906;52.046;4.724;2023-10-08T12:40:42;11.32;;;6.03;;
27539;SDS011;15906;52.046;4.724;2023-10-08T12:43:13;11.68;;;5.93;;
27539;SDS011;15906;52.046;4.724;2023-10-08T12:45:39;10.80;;;5.93;;
27539;SDS011;15906;52.046;4.724;2023-10-08T12:48:04;12.23;;;6.43;;
27539;SDS011;15906;52.046;4.724;2023-10-08T12:50:30;17.50;;;7.00;;
27539;SDS011;15906;52.046;4.724;2023-10-08T12:53:07;11.00;;;5.78;;
27539;SDS011;15906;52.046;4.724;2023-10-08T12:55:39;9.55;;;5.63;;
27539;SDS011;15906;52.046;4.724;2023-10-08T12:58:08;12.52;;;6.93;;
27539;SDS011;15906;52.046;4.724;2023-10-08T13:00:37;14.38;;;5.68;;
27539;SDS011;15906;52.046;4.724;2023-10-08T13:03:03;13.55;;;5.22;;
27539;SDS011;15906;52.046;4.724;2023-10-08T13:05:32;9.73;;;5.15;;
27539;SDS011;15906;52.046;4.724;2023-10-08T13:07:59;10.77;;;5.65;;
27539;SDS011;15906;52.046;4.724;2023-10-08T13:10:34;9.40;;;5.40;;
27539;SDS011;15906;52.046;4.724;2023-10-08T13:13:03;12.90;;;5.53;;
27539;SDS011;15906;52.046;4.724;2023-10-08T13:15:29;10.57;;;6.22;;
27539;SDS011;15906;52.046;4.724;2023-10-08T13:18:00;9.45;;;5.50;;
27539;SDS011;15906;52.046;4.724;2023-10-08T13:20:28;13.27;;;6.40;;
27539;SDS011;15906;52.046;4.724;2023-10-08T13:22:58;12.23;;;6.68;;
27539;SDS011;15906;52.046;4.724;2023-10-08T13:25:24;13.00;;;7.35;;
27539;SDS011;15906;52.046;4.724;2023-10-08T13:27:50;15.27;;;7.32;;
27539;SDS011;15906;52.046;4.724;2023-10-08T13:30:16;12.52;;;7.03;;
27539;SDS011;15906;52.046;4.724;2023-10-08T13:32:42;13.15;;;6.55;;
27539;SDS011;15906;52.046;4.724;2023-10-08T13:35:08;17.75;;;8.20;;
27539;SDS011;15906;52.046;4.724;2023-10-08T13:37:36;15.57;;;7.85;;
27539;SDS011;15906;52.046;4.724;2023-10-08T13:40:02;12.00;;;7.95;;
27539;SDS011;15906;52.046;4.724;2023-10-08T13:42:28;16.63;;;9.00;;
27539;SDS011;15906;52.046;4.724;2023-10-08T13:44:54;17.73;;;8.88;;
27539;SDS011;15906;52.046;4.724;2023-10-08T13:47:23;19.25;;;9.43;;
27539;SDS011;15906;52.046;4.724;2023-10-08T13:49:51;17.70;;;10.32;;
27539;SDS011;15906;52.046;4.724;2023-10-08T13:52:18;16.58;;;10.07;;
27539;SDS011;15906;52.046;4.724;2023-10-08T13:54:51;20.00;;;9.63;;
27539;SDS011;15906;52.046;4.724;2023-10-08T13:57:18;19.08;;;9.15;;
27539;SDS011;15906;52.046;4.724;2023-10-08T13:59:47;16.67;;;9.45;;
27539;SDS011;15906;52.046;4.724;2023-10-08T14:02:13;16.83;;;9.73;;
27539;SDS011;15906;52.046;4.724;2023-10-08T14:04:40;16.10;;;8.45;;
27539;SDS011;15906;52.046;4.724;2023-10-08T14:07:10;16.45;;;9.80;;
27539;SDS011;15906;52.046;4.724;2023-10-08T14:09:44;14.40;;;8.45;;
27539;SDS011;15906;52.046;4.724;2023-10-08T14:12:11;17.65;;;9.00;;
27539;SDS011;15906;52.046;4.724;2023-10-08T14:14:38;15.48;;;8.93;;
27539;SDS011;15906;52.046;4.724;2023-10-08T14:17:08;13.80;;;7.53;;
27539;SDS011;15906;52.046;4.724;2023-10-08T14:19:39;16.48;;;8.20;;
27539;SDS011;15906;52.046;4.724;2023-10-08T14:22:14;18.33;;;8.90;;
27539;SDS011;15906;52.046;4.724;2023-10-08T14:24:40;18.25;;;7.95;;
27539;SDS011;15906;52.046;4.724;2023-10-08T14:27:06;13.52;;;7.60;;
27539;SDS011;15906;52.046;4.724;2023-10-08T14:29:38;14.00;;;7.20;;
27539;SDS011;15906;52.046;4.724;2023-10-08T14:32:15;18.00;;;7.75;;
27539;SDS011;15906;52.046;4.724;2023-10-08T14:34:40;15.60;;;8.30;;
27539;SDS011;15906;52.046;4.724;2023-10-08T14:37:12;18.58;;;7.35;;
27539;SDS011;15906;52.046;4.724;2023-10-08T14:39:56;14.75;;;6.25;;
27539;SDS011;15906;52.046;4.724;2023-10-08T14:42:40;13.52;;;6.60;;
27539;SDS011;15906;52.046;4.724;2023-10-08T14:45:27;12.05;;;6.35;;
27539;SDS011;15906;52.046;4.724;2023-10-08T14:47:56;12.77;;;6.00;;
27539;SDS011;15906;52.046;4.724;2023-10-08T14:50:23;19.25;;;6.82;;
27539;SDS011;15906;52.046;4.724;2023-10-08T14:52:52;11.30;;;5.90;;
27539;SDS011;15906;52.046;4.724;2023-10-08T14:55:18;10.05;;;5.75;;
27539;SDS011;15906;52.046;4.724;2023-10-08T14:57:46;10.43;;;5.65;;
27539;SDS011;15906;52.046;4.724;2023-10-08T15:00:12;12.55;;;5.50;;
27539;SDS011;15906;52.046;4.724;2023-10-08T15:02:38;10.93;;;5.55;;
27539;SDS011;15906;52.046;4.724;2023-10-08T15:05:06;15.85;;;6.00;;
27539;SDS011;15906;52.046;4.724;2023-10-08T15:07:35;13.15;;;5.57;;
27539;SDS011;15906;52.046;4.724;2023-10-08T15:10:02;13.18;;;7.22;;
27539;SDS011;15906;52.046;4.724;2023-10-08T15:12:28;13.77;;;6.32;;